Time;durP1;ratioP1;P1;durP2;ratioP2;P2;SDS_P1;SDS_P2;PMS_P1;PMS_P2;Temp;Humidity;BMP_temperature;BMP_pressure;BME280_temperature;BME280_humidity;BME280_pressure;Samples;Min_cycle;Max_cycle;Signal;HPM_P1;HPM_P2
2022/07/15 00:02:23;;;;;;;5.40;2.13;;;15.50;99.90;;;;;;5083578;28;20212;-87
2022/07/15 00:04:50;;;;;;;6.13;2.23;;;15.60;99.90;;;;;;5085452;28;20216;-87
2022/07/15 00:07:23;;;;;;;4.57;2.27;;;15.50;99.90;;;;;;5087854;28;20828;-86
2022/07/15 00:10:20;;;;;;;2.63;1.90;;;15.50;99.90;;;;;;5088494;28;20264;-85
2022/07/15 00:12:51;;;;;;;4.00;2.40;;;15.40;99.90;;;;;;5090277;28;20261;-86
2022/07/15 00:15:22;;;;;;;5.80;2.30;;;15.30;99.90;;;;;;5089607;28;20215;-88
2022/07/15 00:17:50;;;;;;;7.47;3.20;;;15.30;99.90;;;;;;5085555;28;20276;-85
2022/07/15 00:20:24;;;;;;;10.80;2.47;;;15.20;99.90;;;;;;5085549;28;20236;-85
2022/07/15 00:22:51;;;;;;;4.77;2.07;;;15.20;99.90;;;;;;5089916;28;20282;-87
2022/07/15 00:25:19;;;;;;;5.93;2.17;;;15.10;99.90;;;;;;5088360;28;20208;-87
2022/07/15 00:28:00;;;;;;;9.40;2.27;;;14.90;99.90;;;;;;5091070;28;20203;-86
2022/07/15 00:30:32;;;;;;;6.17;2.23;;;15.10;99.90;;;;;;5090003;28;20606;-87
2022/07/15 00:33:00;;;;;;;9.87;2.40;;;15.00;99.90;;;;;;5083043;28;20204;-89
2022/07/15 00:35:30;;;;;;;4.43;1.90;;;15.00;99.90;;;;;;5087052;28;20302;-91
2022/07/15 00:37:58;;;;;;;6.63;2.63;;;15.00;99.90;;;;;;5090017;28;20231;-86
2022/07/15 00:40:28;;;;;;;5.83;2.30;;;14.90;99.90;;;;;;5086873;28;20236;-87
2022/07/15 00:42:58;;;;;;;8.57;2.37;;;14.90;99.90;;;;;;5088799;28;20344;-86
2022/07/15 00:45:27;;;;;;;6.20;1.97;;;14.90;99.90;;;;;;5087437;28;20303;-86
2022/07/15 00:47:56;;;;;;;9.77;2.17;;;14.80;99.90;;;;;;5087811;28;20592;-86
2022/07/15 00:50:27;;;;;;;6.40;2.17;;;14.70;99.90;;;;;;5084928;28;20214;-86
2022/07/15 00:53:07;;;;;;;6.50;2.27;;;14.80;99.90;;;;;;5089097;28;20207;-85
2022/07/15 00:55:41;;;;;;;9.07;2.47;;;14.80;99.90;;;;;;5085826;28;20202;-88
2022/07/15 00:58:14;;;;;;;6.47;2.27;;;14.90;99.90;;;;;;5085095;28;20686;-87
2022/07/15 01:00:43;;;;;;;6.67;2.53;;;14.90;99.90;;;;;;5088408;28;20228;-86
2022/07/15 01:03:14;;;;;;;6.70;2.43;;;15.00;99.90;;;;;;5087738;28;20215;-85
2022/07/15 01:05:42;;;;;;;4.10;1.77;;;15.00;99.90;;;;;;5088214;28;20204;-87
2022/07/15 01:08:12;;;;;;;5.13;2.07;;;15.10;99.90;;;;;;5088906;28;20231;-86
2022/07/15 01:10:40;;;;;;;5.50;1.70;;;15.10;99.90;;;;;;5088007;28;20210;-86
2022/07/15 01:13:07;;;;;;;5.00;2.20;;;15.20;99.90;;;;;;5088128;28;20287;-85
2022/07/15 01:15:35;;;;;;;7.63;2.20;;;15.30;99.90;;;;;;5088331;28;20298;-86
2022/07/15 01:18:07;;;;;;;9.07;1.97;;;15.40;99.90;;;;;;5087953;28;20246;-87
2022/07/15 01:20:48;;;;;;;7.83;2.20;;;15.40;99.90;;;;;;5086851;28;20635;-85
2022/07/15 01:23:18;;;;;;;6.20;1.90;;;15.40;99.90;;;;;;5088273;28;20211;-86
2022/07/15 01:25:45;;;;;;;4.93;2.20;;;15.50;99.90;;;;;;5089080;28;20253;-87
2022/07/15 01:28:21;;;;;;;6.47;1.97;;;15.50;99.90;;;;;;5087992;28;20315;-85
2022/07/15 01:30:49;;;;;;;8.43;2.10;;;15.60;99.90;;;;;;5088875;28;20227;-87
2022/07/15 01:33:17;;;;;;;10.83;1.87;;;15.60;99.90;;;;;;5089178;28;20211;-85
2022/07/15 01:35:45;;;;;;;7.83;1.87;;;15.70;99.90;;;;;;5084318;28;20203;-87
2022/07/15 01:38:13;;;;;;;4.90;1.83;;;15.70;99.90;;;;;;5090858;28;20312;-86
2022/07/15 01:40:48;;;;;;;10.80;2.20;;;15.80;99.90;;;;;;5091029;28;20224;-87
2022/07/15 01:43:20;;;;;;;6.33;2.20;;;15.80;99.90;;;;;;5095168;28;20238;-88
2022/07/15 01:45:48;;;;;;;8.27;2.00;;;15.80;99.90;;;;;;5093639;28;20220;-87
2022/07/15 01:51:03;;;;;;;7.43;1.90;;;15.90;99.90;;;;;;5106925;28;20264;-87
2022/07/15 01:53:30;;;;;;;4.77;1.80;;;15.90;99.90;;;;;;5110940;28;20212;-88
2022/07/15 01:55:57;;;;;;;4.20;1.77;;;16.00;99.90;;;;;;5110810;28;20203;-87
2022/07/15 01:58:24;;;;;;;4.87;1.70;;;16.00;99.90;;;;;;5092904;28;20258;-87
2022/07/15 02:01:01;;;;;;;;;;;;;;;;;;;;;
2022/07/15 02:03:30;;;;;;;4.67;1.77;;;16.10;99.90;;;;;;5088170;28;20249;-85
2022/07/15 02:06:02;;;;;;;8.40;1.90;;;16.00;99.90;;;;;;5087386;28;20277;-87
2022/07/15 02:08:30;;;;;;;6.10;1.70;;;16.00;99.90;;;;;;5087208;28;20204;-86
2022/07/15 02:10:58;;;;;;;7.33;1.80;;;15.90;99.90;;;;;;5088048;28;20206;-87
2022/07/15 02:13:34;;;;;;;7.20;2.10;;;16.00;99.90;;;;;;5086422;28;20199;-87
2022/07/15 02:16:01;;;;;;;6.43;1.90;;;16.00;99.90;;;;;;5088318;28;20243;-86
2022/07/15 02:18:32;;;;;;;5.40;1.67;;;16.00;99.90;;;;;;5090917;28;20223;-86
2022/07/15 02:21:04;;;;;;;5.97;1.80;;;16.10;99.90;;;;;;5088487;28;20273;-86
2022/07/15 02:23:34;;;;;;;6.73;2.33;;;16.10;99.90;;;;;;5084157;28;20279;-86
2022/07/15 02:26:01;;;;;;;7.03;2.00;;;16.10;99.90;;;;;;5086762;28;20200;-86
2022/07/15 02:28:28;;;;;;;6.03;2.17;;;16.20;99.90;;;;;;5084079;28;20928;-85
2022/07/15 02:30:59;;;;;;;7.37;1.97;;;16.20;99.90;;;;;;5087031;28;20230;-87
2022/07/15 02:33:26;;;;;;;9.03;2.13;;;16.20;99.90;;;;;;5085820;28;20228;-85
2022/07/15 02:35:57;;;;;;;7.33;2.30;;;16.30;99.90;;;;;;5085037;28;20208;-85
2022/07/15 02:38:26;;;;;;;3.53;1.60;;;16.20;99.90;;;;;;5086742;28;20350;-86
2022/07/15 02:40:56;;;;;;;8.57;2.00;;;16.30;99.90;;;;;;5087815;28;20303;-86
2022/07/15 02:43:23;;;;;;;5.13;1.90;;;16.30;99.90;;;;;;5108642;28;20202;-88
2022/07/15 02:45:56;;;;;;;5.80;2.10;;;16.30;99.90;;;;;;5101876;28;20269;-86
2022/07/15 02:48:23;;;;;;;7.67;1.90;;;16.30;99.90;;;;;;5097040;28;20196;-85
2022/07/15 02:50:56;;;;;;;4.57;1.60;;;16.30;99.90;;;;;;5105803;28;20196;-86
2022/07/15 02:53:28;;;;;;;7.80;1.83;;;16.40;99.90;;;;;;5109481;28;20204;-86
2022/07/15 02:55:59;;;;;;;8.20;2.47;;;16.40;99.90;;;;;;5108275;28;20250;-87
2022/07/15 02:58:28;;;;;;;7.40;2.10;;;16.40;99.90;;;;;;5091446;28;20239;-86
2022/07/15 03:00:55;;;;;;;5.73;1.90;;;16.40;99.90;;;;;;5096137;28;20266;-85
2022/07/15 03:03:27;;;;;;;4.83;2.00;;;16.40;99.90;;;;;;5095638;28;20324;-87
2022/07/15 03:05:57;;;;;;;5.27;2.13;;;16.40;99.90;;;;;;5103989;28;20219;-86
2022/07/15 03:08:26;;;;;;;10.87;1.90;;;16.40;99.90;;;;;;5089232;28;20203;-85
2022/07/15 03:10:56;;;;;;;6.53;2.00;;;16.40;99.90;;;;;;5091130;28;20226;-87
2022/07/15 03:13:25;;;;;;;6.13;1.83;;;16.40;99.90;;;;;;5087079;28;20204;-86
2022/07/15 03:15:52;;;;;;;5.63;1.70;;;16.40;99.90;;;;;;5082968;28;20339;-87
2022/07/15 03:18:19;;;;;;;6.43;1.80;;;16.40;99.90;;;;;;5083170;28;20265;-86
2022/07/15 03:20:46;;;;;;;4.47;1.77;;;16.40;99.90;;;;;;5084282;28;20192;-84
2022/07/15 03:23:17;;;;;;;5.53;1.73;;;16.40;99.90;;;;;;5084413;28;20207;-86
2022/07/15 03:25:44;;;;;;;6.07;1.70;;;16.40;99.90;;;;;;5079073;28;20204;-86
2022/07/15 03:28:11;;;;;;;7.33;2.47;;;16.40;99.90;;;;;;5081241;28;20912;-85
2022/07/15 03:30:38;;;;;;;3.20;1.80;;;16.50;99.90;;;;;;5084077;28;20224;-85
2022/07/15 03:33:05;;;;;;;4.63;1.87;;;16.40;99.90;;;;;;5081429;28;20203;-86
2022/07/15 03:35:36;;;;;;;4.27;1.90;;;16.40;99.90;;;;;;5083762;28;20204;-86
2022/07/15 03:38:03;;;;;;;3.70;1.83;;;16.40;99.90;;;;;;5082443;28;20224;-86
2022/07/15 03:40:33;;;;;;;7.07;1.90;;;16.40;99.90;;;;;;5085224;28;20214;-86
2022/07/15 03:43:00;;;;;;;3.60;1.47;;;16.40;99.90;;;;;;5086532;28;20729;-85
2022/07/15 03:45:29;;;;;;;4.83;1.63;;;16.40;99.90;;;;;;5088289;28;20226;-85
2022/07/15 03:47:56;;;;;;;4.83;1.93;;;16.40;99.90;;;;;;5088336;28;20231;-86
2022/07/15 03:50:23;;;;;;;3.67;1.50;;;16.40;99.90;;;;;;5087252;28;20196;-85
2022/07/15 03:52:50;;;;;;;6.27;2.10;;;16.30;99.90;;;;;;5088521;28;20202;-86
2022/07/15 03:55:18;;;;;;;4.93;1.70;;;16.40;99.90;;;;;;5086715;28;20215;-86
2022/07/15 03:57:50;;;;;;;6.27;1.80;;;16.30;99.90;;;;;;5088638;28;20235;-85
2022/07/15 04:00:17;;;;;;;6.10;1.67;;;16.30;99.90;;;;;;5088336;28;20301;-86
2022/07/15 04:02:44;;;;;;;6.77;1.90;;;16.30;99.90;;;;;;5089309;28;20297;-86
2022/07/15 04:05:14;;;;;;;2.87;1.87;;;16.30;99.90;;;;;;5087300;28;20887;-85
2022/07/15 04:07:44;;;;;;;6.33;2.20;;;16.20;99.90;;;;;;5090675;28;20207;-86
2022/07/15 04:10:11;;;;;;;5.30;2.13;;;16.20;99.90;;;;;;5107744;28;20219;-86
2022/07/15 04:12:38;;;;;;;4.50;2.00;;;16.20;99.90;;;;;;5084949;28;20240;-86
2022/07/15 04:15:17;;;;;;;6.10;2.80;;;16.20;99.90;;;;;;5084334;28;20691;-86
2022/07/15 04:17:44;;;;;;;5.47;2.10;;;16.30;99.90;;;;;;5089147;28;20222;-84
2022/07/15 04:20:12;;;;;;;3.27;1.63;;;16.20;99.90;;;;;;5085493;28;20204;-84
2022/07/15 04:22:44;;;;;;;7.90;2.07;;;16.20;99.90;;;;;;5082940;28;20280;-83
2022/07/15 04:25:14;;;;;;;4.00;1.70;;;16.30;99.90;;;;;;5084845;28;20208;-87
2022/07/15 04:27:42;;;;;;;4.77;1.90;;;16.30;99.90;;;;;;5087619;28;20577;-85
2022/07/15 04:30:10;;;;;;;7.17;2.13;;;16.30;99.90;;;;;;5089756;28;20221;-83
2022/07/15 04:32:37;;;;;;;5.87;1.93;;;16.30;99.90;;;;;;5086611;28;20231;-83
2022/07/15 04:35:05;;;;;;;6.67;2.07;;;16.40;99.90;;;;;;5083027;28;20203;-85
2022/07/15 04:37:32;;;;;;;3.43;1.80;;;16.40;99.90;;;;;;5083947;28;20280;-85
2022/07/15 04:39:59;;;;;;;5.87;2.67;;;16.50;99.90;;;;;;5087765;28;20233;-85
2022/07/15 04:42:27;;;;;;;5.93;2.03;;;16.50;99.90;;;;;;5086689;28;20676;-85
2022/07/15 04:44:56;;;;;;;5.47;1.90;;;16.50;99.90;;;;;;5085395;28;21981;-84
2022/07/15 04:47:22;;;;;;;6.73;1.83;;;16.50;99.90;;;;;;5085550;28;20337;-85
2022/07/15 04:52:35;;;;;;;6.23;1.97;;;16.60;99.90;;;;;;5084754;28;20210;-85
2022/07/15 04:55:02;;;;;;;5.70;1.80;;;16.60;99.90;;;;;;5086493;28;20204;-86
2022/07/15 04:57:29;;;;;;;5.07;2.00;;;16.60;99.90;;;;;;5087777;28;20227;-84
2022/07/15 04:59:56;;;;;;;7.70;1.97;;;16.70;99.90;;;;;;5086074;28;20262;-84
2022/07/15 05:02:23;;;;;;;8.23;2.03;;;16.60;99.90;;;;;;5087804;28;20207;-87
2022/07/15 05:04:50;;;;;;;3.77;2.13;;;16.70;99.90;;;;;;5087799;28;20214;-84
2022/07/15 05:07:19;;;;;;;6.93;2.10;;;16.60;99.90;;;;;;5085276;28;20206;-86
2022/07/15 05:09:49;;;;;;;6.23;2.27;;;16.50;99.90;;;;;;5085516;28;20216;-85
2022/07/15 05:12:17;;;;;;;7.40;2.30;;;16.50;99.90;;;;;;5086064;28;20206;-85
2022/07/15 05:14:44;;;;;;;4.60;1.80;;;16.50;99.90;;;;;;5089971;28;20200;-84
2022/07/15 05:17:12;;;;;;;7.53;2.13;;;16.50;99.90;;;;;;5087314;28;20224;-85
2022/07/15 05:19:39;;;;;;;7.10;2.10;;;16.50;99.90;;;;;;5085382;28;20808;-85
2022/07/15 05:22:06;;;;;;;7.47;2.03;;;16.50;99.90;;;;;;5083017;28;20665;-83
2022/07/15 05:24:35;;;;;;;6.33;2.40;;;16.50;99.90;;;;;;5085352;28;20318;-84
2022/07/15 05:27:02;;;;;;;9.57;2.20;;;16.50;99.90;;;;;;5084643;28;20204;-84
2022/07/15 05:29:29;;;;;;;6.27;1.90;;;16.40;99.90;;;;;;5085390;28;20255;-86
2022/07/15 05:31:57;;;;;;;4.80;1.80;;;16.40;99.90;;;;;;5085124;28;20339;-85
2022/07/15 05:34:26;;;;;;;3.90;1.70;;;16.40;99.90;;;;;;5086033;28;20216;-88
2022/07/15 05:36:53;;;;;;;9.03;2.57;;;16.50;99.90;;;;;;5087675;28;20196;-88
2022/07/15 05:39:20;;;;;;;6.43;1.87;;;16.60;99.90;;;;;;5087601;28;20297;-85
2022/07/15 05:41:50;;;;;;;5.35;1.50;;;17.30;99.90;;;;;;5089676;28;20258;-85
2022/07/15 05:44:17;;;;;;;4.35;1.23;;;18.50;99.90;;;;;;5094557;28;20230;-85
2022/07/15 05:46:45;;;;;;;5.65;2.00;;;19.80;99.90;;;;;;5088552;28;20220;-85
2022/07/15 05:49:12;;;;;;;3.83;1.52;;;20.90;99.90;;;;;;5090769;28;20211;-85
2022/07/15 05:51:51;;;;;;;3.03;1.23;;;22.00;99.90;;;;;;5090784;28;20196;-83
2022/07/15 05:54:27;;;;;;;6.07;1.38;;;22.90;99.90;;;;;;5091779;28;20279;-87
2022/07/15 05:56:54;;;;;;;3.28;1.00;;;23.70;99.90;;;;;;5091741;28;20204;-83
2022/07/15 05:59:24;;;;;;;3.70;1.08;;;24.60;99.90;;;;;;5089076;28;20227;-84
2022/07/15 06:01:53;;;;;;;4.35;0.77;;;;;;;;;;5085504;28;20595;-83
2022/07/15 06:04:21;;;;;;;2.67;0.90;;;25.60;99.90;;;;;;5084365;28;20204;-83
2022/07/15 06:06:48;;;;;;;4.28;0.90;;;26.20;99.90;;;;;;5080872;28;20916;-85
2022/07/15 06:09:18;;;;;;;4.30;0.88;;;;;;;;;;5083203;28;20208;-87
2022/07/15 06:12:06;;;;;;;3.17;1.15;;;27.40;99.90;;;;;;5091099;28;20214;-89
2022/07/15 06:14:41;;;;;;;6.07;1.10;;;28.10;97.90;;;;;;5086988;28;20203;-88
2022/07/15 06:17:10;;;;;;;4.75;1.27;;;28.70;96.90;;;;;;5081991;28;20609;-85
2022/07/15 06:19:40;;;;;;;6.15;1.40;;;29.20;95.40;;;;;;5083935;28;20226;-86
2022/07/15 06:22:07;;;;;;;2.78;0.88;;;29.50;93.80;;;;;;5083767;28;20629;-85
2022/07/15 06:24:34;;;;;;;3.28;0.93;;;29.90;92.10;;;;;;5083745;28;20196;-87
2022/07/15 06:27:07;;;;;;;1.77;0.63;;;29.90;91.00;;;;;;5085103;28;20211;-84
2022/07/15 06:29:35;;;;;;;2.13;0.80;;;30.30;89.50;;;;;;5081651;28;20199;-85
2022/07/15 06:32:07;;;;;;;4.68;1.00;;;30.50;87.20;;;;;;5086786;28;20243;-86
2022/07/15 06:34:44;;;;;;;;;;;;;;;;;;;;;
2022/07/15 06:37:12;;;;;;;3.03;0.65;;;30.90;81.20;;;;;;5085446;28;20201;-86
2022/07/15 06:39:40;;;;;;;1.48;0.60;;;31.00;78.80;;;;;;5084426;28;20320;-85
2022/07/15 06:42:07;;;;;;;1.15;0.45;;;30.80;76.80;;;;;;5084016;28;20288;-85
2022/07/15 06:44:35;;;;;;;1.88;0.60;;;30.60;74.30;;;;;;5083288;28;20208;-85
2022/07/15 06:47:03;;;;;;;2.83;0.70;;;30.60;73.90;;;;;;5084044;28;20220;-86
2022/07/15 06:49:31;;;;;;;2.95;0.85;;;30.70;73.90;;;;;;5083771;28;20204;-86
2022/07/15 06:51:58;;;;;;;2.55;0.47;;;30.80;73.00;;;;;;5086689;28;20257;-85
2022/07/15 06:54:28;;;;;;;1.77;0.60;;;31.00;71.50;;;;;;5086443;28;20207;-84
2022/07/15 06:56:54;;;;;;;3.58;0.47;;;31.20;70.20;;;;;;5087603;28;20208;-83
2022/07/15 06:59:24;;;;;;;1.77;0.47;;;31.30;69.00;;;;;;5103743;28;20224;-84
2022/07/15 07:01:51;;;;;;;2.00;0.55;;;31.30;69.30;;;;;;5098168;28;20733;-84
2022/07/15 07:04:22;;;;;;;2.30;0.60;;;31.20;69.30;;;;;;5089638;28;20227;-83
2022/07/15 07:06:54;;;;;;;2.13;0.50;;;31.20;69.20;;;;;;5090124;28;20212;-84
2022/07/15 07:09:21;;;;;;;3.42;0.55;;;31.30;68.00;;;;;;5086574;28;20616;-84
2022/07/15 07:11:48;;;;;;;2.17;0.60;;;31.50;67.50;;;;;;5082039;28;20224;-84
2022/07/15 07:14:18;;;;;;;0.82;0.40;;;31.60;67.20;;;;;;5087123;28;20202;-83
2022/07/15 07:16:48;;;;;;;1.35;0.57;;;31.70;66.10;;;;;;5090151;28;20219;-84
2022/07/15 07:19:17;;;;;;;1.15;0.40;;;31.70;64.30;;;;;;5090230;28;20243;-87
2022/07/15 07:21:44;;;;;;;2.28;0.50;;;31.60;64.50;;;;;;5089834;28;20208;-85
2022/07/15 07:24:12;;;;;;;2.00;0.60;;;31.50;64.20;;;;;;5086028;28;20195;-83
2022/07/15 07:26:39;;;;;;;2.65;0.50;;;31.50;63.40;;;;;;5090401;28;20203;-85
2022/07/15 07:29:06;;;;;;;2.15;0.50;;;31.40;63.20;;;;;;5089942;28;20293;-86
2022/07/15 07:31:36;;;;;;;1.20;0.47;;;31.50;63.70;;;;;;5087064;28;20871;-86
2022/07/15 07:34:03;;;;;;;1.02;0.50;;;31.80;63.40;;;;;;5085554;28;20215;-83
2022/07/15 07:36:30;;;;;;;1.15;0.47;;;31.80;61.10;;;;;;5087360;28;20269;-84
2022/07/15 07:39:00;;;;;;;0.75;0.40;;;31.60;60.90;;;;;;5088376;28;20809;-86
2022/07/15 07:41:28;;;;;;;1.77;0.50;;;31.80;61.10;;;;;;5081357;28;20199;-83
2022/07/15 07:43:58;;;;;;;1.15;0.40;;;31.80;60.70;;;;;;5090729;28;20453;-84
2022/07/15 07:46:27;;;;;;;1.70;0.60;;;31.80;59.80;;;;;;5098831;28;20220;-84
2022/07/15 07:48:56;;;;;;;1.73;0.50;;;31.50;63.40;;;;;;5101287;28;20204;-84
2022/07/15 07:51:43;;;;;;;0.93;0.30;;;31.60;60.30;;;;;;5086414;28;20196;-84
2022/07/15 07:54:13;;;;;;;2.15;0.60;;;31.60;59.80;;;;;;5086401;28;20326;-85
2022/07/15 07:56:45;;;;;;;1.40;0.35;;;31.50;59.70;;;;;;5081786;28;20199;-84
2022/07/15 07:59:14;;;;;;;1.13;0.32;;;31.50;60.40;;;;;;5088064;28;20816;-84
2022/07/15 08:01:41;;;;;;;0.90;0.40;;;31.50;61.10;;;;;;5077700;28;20704;-83
2022/07/15 08:04:10;;;;;;;1.00;0.40;;;31.50;59.30;;;;;;5084629;28;20635;-86
2022/07/15 08:06:38;;;;;;;9.93;1.00;;;31.40;59.70;;;;;;5088851;28;20252;-80
2022/07/15 08:09:07;;;;;;;2.50;0.57;;;31.30;60.20;;;;;;5086509;28;20249;-82
2022/07/15 08:11:34;;;;;;;2.00;0.63;;;31.30;59.50;;;;;;5088284;28;20227;-82
2022/07/15 08:14:01;;;;;;;4.85;1.05;;;31.30;59.10;;;;;;5088616;28;20202;-82
2022/07/15 08:16:28;;;;;;;0.95;0.47;;;31.10;59.80;;;;;;5086365;28;20219;-82
2022/07/15 08:18:55;;;;;;;2.15;0.50;;;30.90;58.50;;;;;;5089985;28;21106;-81
2022/07/15 08:21:22;;;;;;;2.63;0.68;;;30.50;59.50;;;;;;5087299;28;20199;-82
2022/07/15 08:23:49;;;;;;;3.38;0.68;;;30.00;61.20;;;;;;5088114;28;20195;-82
2022/07/15 08:26:23;;;;;;;0.50;0.30;;;29.40;62.00;;;;;;5085594;28;20212;-82
2022/07/15 08:28:55;;;;;;;0.98;0.70;;;28.90;61.50;;;;;;5086823;28;20653;-83
2022/07/15 08:31:33;;;;;;;2.83;0.75;;;28.20;62.70;;;;;;5083884;28;20255;-83
2022/07/15 08:34:01;;;;;;;1.73;0.68;;;;;;;;;;5088445;28;20281;-85
2022/07/15 08:36:28;;;;;;;2.08;0.52;;;27.10;66.00;;;;;;5088516;28;20277;-82
2022/07/15 08:38:55;;;;;;;1.85;0.60;;;26.70;67.60;;;;;;5084701;28;20231;-83
2022/07/15 08:41:22;;;;;;;2.00;0.55;;;26.30;66.20;;;;;;5086601;28;20235;-80
2022/07/15 08:43:49;;;;;;;28.48;3.15;;;26.20;66.70;;;;;;5083018;28;20208;-82
2022/07/15 08:46:16;;;;;;;86.85;6.70;;;26.20;68.10;;;;;;5081626;28;20290;-82
2022/07/15 08:48:50;;;;;;;0.77;0.50;;;26.40;68.70;;;;;;5086631;28;20577;-84
2022/07/15 08:51:21;;;;;;;1.17;0.50;;;27.00;68.80;;;;;;5082935;28;20192;-84
2022/07/15 08:53:49;;;;;;;2.65;0.50;;;27.70;69.60;;;;;;5085415;28;20294;-82
2022/07/15 08:56:18;;;;;;;2.53;0.60;;;28.20;67.20;;;;;;5086979;28;20200;-82
2022/07/15 08:58:47;;;;;;;1.35;0.50;;;28.70;65.80;;;;;;5085498;28;20224;-83
2022/07/15 09:01:32;;;;;;;1.00;0.45;;;29.00;65.60;;;;;;5072042;28;20224;-83
2022/07/15 09:03:59;;;;;;;2.60;0.63;;;29.20;64.80;;;;;;5068518;28;20250;-83
2022/07/15 09:06:47;;;;;;;4.07;0.90;;;29.20;65.10;;;;;;5052603;28;20216;-84
2022/07/15 09:09:26;;;;;;;3.08;0.75;;;29.00;63.90;;;;;;5047462;28;20258;-82
2022/07/15 09:11:59;;;;;;;3.80;0.95;;;29.10;64.40;;;;;;5052483;28;20201;-83
2022/07/15 09:14:41;;;;;;;3.30;0.70;;;29.10;65.40;;;;;;5065967;28;20201;-83
2022/07/15 09:17:09;;;;;;;1.65;0.47;;;28.80;65.20;;;;;;5061011;28;20221;-85
2022/07/15 09:20:08;;;;;;;4.07;0.60;;;28.20;66.90;;;;;;5070103;28;20225;-83
2022/07/15 09:22:55;;;;;;;1.58;0.77;;;27.40;65.90;;;;;;5044423;28;20200;-82
2022/07/15 09:25:24;;;;;;;1.42;0.55;;;27.00;75.50;;;;;;5068374;28;20211;-85
2022/07/15 09:27:57;;;;;;;0.70;0.57;;;26.40;69.90;;;;;;5050264;28;20213;-85
2022/07/15 09:33:43;;;;;;;6.35;1.02;;;26.20;71.70;;;;;;5068142;28;20215;-84
2022/07/15 09:36:22;;;;;;;2.00;0.85;;;26.40;71.80;;;;;;5067056;28;20217;-85
2022/07/15 09:38:55;;;;;;;2.05;0.55;;;26.60;72.20;;;;;;5043075;28;20277;-84
2022/07/15 09:41:40;;;;;;;1.33;0.50;;;26.90;71.70;;;;;;5047774;28;20645;-83
2022/07/15 09:44:12;;;;;;;1.83;0.70;;;27.30;69.10;;;;;;5043319;28;20704;-84
2022/07/15 09:46:54;;;;;;;1.35;0.55;;;27.50;69.30;;;;;;5068523;28;20224;-82
2022/07/15 09:49:25;;;;;;;20.67;2.15;;;27.40;68.70;;;;;;5065699;28;20213;-81
2022/07/15 09:52:02;;;;;;;3.20;1.25;;;27.30;70.10;;;;;;5048311;28;20728;-81
2022/07/15 09:54:31;;;;;;;2.35;0.80;;;27.10;69.90;;;;;;5059306;28;20200;-83
2022/07/15 09:57:02;;;;;;;1.35;0.63;;;26.70;71.00;;;;;;5047496;28;20582;-81
2022/07/15 09:59:30;;;;;;;3.88;0.80;;;;;;;;;;5068964;28;20224;-86
2022/07/15 10:02:04;;;;;;;2.78;1.08;;;26.00;71.50;;;;;;5089105;28;20700;-83
2022/07/15 10:04:34;;;;;;;3.30;0.70;;;25.60;73.60;;;;;;5087507;28;20287;-83
2022/07/15 10:07:07;;;;;;;3.28;0.98;;;25.10;73.90;;;;;;5092123;28;20307;-83
2022/07/15 10:09:55;;;;;;;2.58;0.80;;;24.70;75.10;;;;;;5094731;28;20215;-82
2022/07/15 10:13:15;;;;;;;3.35;0.75;;;24.50;76.40;;;;;;5092698;28;20207;-81
2022/07/15 10:15:58;;;;;;;1.92;0.70;;;24.50;77.50;;;;;;5091483;28;20222;-83
2022/07/15 10:18:31;;;;;;;2.15;0.68;;;24.70;77.40;;;;;;5088710;28;20552;-83
2022/07/15 10:21:13;;;;;;;1.50;0.80;;;25.10;77.20;;;;;;5093333;28;20218;-83
2022/07/15 10:24:04;;;;;;;1.77;0.80;;;25.40;75.30;;;;;;5090509;28;20664;-82
2022/07/15 10:27:09;;;;;;;3.28;0.80;;;25.80;74.80;;;;;;5087171;28;20203;-84
2022/07/15 10:29:39;;;;;;;1.15;0.57;;;26.20;74.90;;;;;;5089644;28;20203;-82
2022/07/15 10:32:19;;;;;;;3.53;0.70;;;26.40;74.60;;;;;;5093782;28;20231;-83
2022/07/15 10:34:49;;;;;;;4.53;0.73;;;26.10;73.90;;;;;;5091642;28;20221;-82
2022/07/15 10:37:17;;;;;;;2.60;0.70;;;25.80;74.00;;;;;;5095970;28;20196;-85
2022/07/15 10:39:57;;;;;;;2.28;0.55;;;25.40;73.70;;;;;;5092598;28;20224;-83
2022/07/15 10:42:29;;;;;;;2.55;0.80;;;25.20;74.10;;;;;;5096840;28;20203;-83
2022/07/15 10:45:00;;;;;;;2.72;0.77;;;24.90;74.90;;;;;;5085741;28;20208;-83
2022/07/15 10:47:29;;;;;;;2.88;0.70;;;24.80;77.00;;;;;;5093526;28;20279;-85
2022/07/15 10:50:36;;;;;;;4.03;1.00;;;25.00;77.10;;;;;;5085052;28;20304;-84
2022/07/15 10:53:17;;;;;;;2.03;0.50;;;25.40;77.40;;;;;;5086362;28;20218;-84
2022/07/15 10:55:47;;;;;;;2.50;0.60;;;25.30;76.80;;;;;;5084466;28;20207;-87
2022/07/15 10:58:19;;;;;;;4.25;0.80;;;25.60;76.30;;;;;;5087257;28;20195;-86
2022/07/15 11:00:56;;;;;;;1.63;0.70;;;26.00;76.30;;;;;;5084226;28;20235;-83
2022/07/15 11:03:24;;;;;;;1.55;0.70;;;26.30;75.50;;;;;;5091400;28;20701;-84
2022/07/15 11:05:56;;;;;;;2.92;0.70;;;26.10;74.40;;;;;;5085133;28;20199;-84
2022/07/15 11:08:36;;;;;;;2.10;0.80;;;25.80;73.80;;;;;;5082486;28;20207;-84
2022/07/15 11:11:18;;;;;;;2.72;0.77;;;25.50;75.40;;;;;;5084348;28;20211;-85
2022/07/15 11:13:50;;;;;;;3.25;1.00;;;25.20;76.00;;;;;;5092879;28;20645;-85
2022/07/15 11:16:21;;;;;;;1.27;0.65;;;25.10;77.80;;;;;;5109759;28;20258;-91
2022/07/15 11:18:59;;;;;;;2.08;0.90;;;25.40;77.40;;;;;;5101965;28;20250;-84
2022/07/15 11:21:27;;;;;;;1.38;0.70;;;25.30;76.40;;;;;;5097371;28;20196;-86
2022/07/15 11:24:21;;;;;;;1.45;0.50;;;25.60;76.10;;;;;;5099390;28;20203;-87
2022/07/15 11:26:49;;;;;;;2.20;0.50;;;25.50;74.40;;;;;;5088341;28;20203;-88
2022/07/15 11:29:20;;;;;;;1.42;0.68;;;25.30;75.00;;;;;;5091071;28;20572;-86
2022/07/15 11:31:52;;;;;;;2.38;0.50;;;25.30;75.20;;;;;;5091715;28;20230;-88
2022/07/15 11:34:22;;;;;;;1.05;0.50;;;25.50;75.70;;;;;;5078635;28;20211;-85
2022/07/15 11:36:58;;;;;;;2.33;0.60;;;25.70;75.70;;;;;;5082332;28;20676;-86
2022/07/15 11:39:34;;;;;;;1.52;0.60;;;26.00;75.40;;;;;;5084687;28;20227;-85
2022/07/15 11:44:58;;;;;;;3.05;0.50;;;26.60;73.80;;;;;;5087594;28;20252;-86
2022/07/15 11:47:28;;;;;;;2.17;0.88;;;26.90;73.70;;;;;;5086675;28;20220;-87
2022/07/15 11:49:59;;;;;;;2.08;0.70;;;27.00;73.30;;;;;;5088264;28;20219;-84
2022/07/15 11:52:26;;;;;;;1.20;0.60;;;27.10;72.40;;;;;;5093621;28;20199;-85
2022/07/15 11:54:57;;;;;;;1.65;0.55;;;26.90;73.80;;;;;;5090830;28;20323;-85
2022/07/15 11:57:34;;;;;;;1.25;0.47;;;26.90;73.10;;;;;;5085207;28;20296;-89
2022/07/15 12:00:02;;;;;;;1.90;0.77;;;27.10;72.00;;;;;;5082986;28;20685;-84
2022/07/15 12:02:33;;;;;;;2.38;0.55;;;27.30;71.50;;;;;;5104493;28;20655;-86
2022/07/15 12:05:05;;;;;;;0.88;0.40;;;27.40;69.10;;;;;;5085449;28;21007;-84
2022/07/15 12:07:47;;;;;;;1.20;0.55;;;27.50;69.60;;;;;;5087417;28;20202;-86
2022/07/15 12:10:25;;;;;;;0.88;0.80;;;27.40;69.20;;;;;;5084732;28;20694;-84
2022/07/15 12:13:01;;;;;;;4.28;0.57;;;27.00;69.50;;;;;;5088396;28;20212;-86
2022/07/15 12:15:39;;;;;;;0.80;0.50;;;26.70;70.50;;;;;;5088744;28;20220;-86
2022/07/15 12:18:10;;;;;;;1.17;0.60;;;26.60;71.40;;;;;;5089329;28;20196;-85
2022/07/15 12:20:39;;;;;;;0.90;0.50;;;26.60;72.70;;;;;;5092948;28;21532;-84
2022/07/15 12:23:09;;;;;;;0.70;0.50;;;26.70;72.90;;;;;;5082223;28;20306;-85
2022/07/15 12:25:37;;;;;;;1.05;0.60;;;26.90;72.60;;;;;;5086739;28;20200;-85
2022/07/15 12:28:05;;;;;;;1.00;0.55;;;27.20;70.50;;;;;;5088797;28;20635;-85
2022/07/15 12:30:38;;;;;;;2.70;0.73;;;27.20;69.10;;;;;;5083959;28;20602;-85
2022/07/15 12:33:19;;;;;;;2.35;0.65;;;27.00;69.30;;;;;;5079055;28;20257;-87
2022/07/15 12:35:57;;;;;;;2.75;0.77;;;26.70;69.80;;;;;;5087672;28;20733;-84
2022/07/15 12:38:30;;;;;;;2.28;0.65;;;26.40;70.40;;;;;;5098730;28;20236;-84
2022/07/15 12:41:08;;;;;;;0.88;0.60;;;26.10;70.90;;;;;;5093978;28;20786;-84
2022/07/15 12:44:09;;;;;;;;;;;;;;;;;;;;;
2022/07/15 12:47:03;;;;;;;2.83;0.65;;;25.80;72.60;;;;;;5089466;28;20585;-85
2022/07/15 12:49:50;;;;;;;2.17;0.70;;;25.60;72.60;;;;;;5094079;28;20200;-85
2022/07/15 12:52:23;;;;;;;3.03;0.70;;;25.70;72.20;;;;;;5102526;28;20200;-83
2022/07/15 12:54:54;;;;;;;1.42;0.60;;;25.70;73.00;;;;;;5096942;28;20202;-86
2022/07/15 12:57:33;;;;;;;1.80;0.68;;;25.60;72.80;;;;;;5104934;28;20203;-85
2022/07/15 13:00:21;;;;;;;1.95;0.77;;;25.50;72.30;;;;;;5097817;28;20228;-81
2022/07/15 13:03:05;;;;;;;1.75;1.00;;;25.50;73.80;;;;;;5088417;28;20204;-83
2022/07/15 13:05:39;;;;;;;1.95;0.90;;;25.50;74.40;;;;;;5091544;28;20658;-82
2022/07/15 13:08:16;;;;;;;4.57;0.93;;;25.30;74.50;;;;;;5092977;28;20218;-83
2022/07/15 13:10:45;;;;;;;2.75;1.02;;;25.30;75.50;;;;;;5089680;28;20308;-86
2022/07/15 13:13:14;;;;;;;2.30;0.80;;;25.30;75.50;;;;;;5083168;28;20208;-85
2022/07/15 13:15:42;;;;;;;2.40;1.00;;;25.40;75.80;;;;;;5085281;28;20219;-84
2022/07/15 13:18:09;;;;;;;3.72;1.35;;;25.30;75.60;;;;;;5090269;28;21045;-82
2022/07/15 13:20:37;;;;;;;3.47;1.02;;;25.30;75.40;;;;;;5083505;28;20220;-82
2022/07/15 13:23:04;;;;;;;3.40;1.10;;;25.30;75.20;;;;;;5087841;28;20204;-85
2022/07/15 13:25:35;;;;;;;1.80;1.08;;;25.40;76.30;;;;;;5089427;28;20313;-83